Time;durP1;ratioP1;P1;durP2;ratioP2;P2;SDS_P1;SDS_P2;PMS_P1;PMS_P2;Temp;Humidity;BMP_temperature;BMP_pressure;BME280_temperature;BME280_humidity;BME280_pressure;Samples;Min_cycle;Max_cycle;Signal;HPM_P1;HPM_P2
2021/05/30 00:02:18;;;;;;;8.80;7.93;;;16.70;76.20;;;;;;5025504;28;20200;-75
2021/05/30 00:04:44;;;;;;;10.27;8.53;;;16.70;76.80;;;;;;5026223;28;20671;-75
2021/05/30 00:07:10;;;;;;;9.27;7.77;;;16.60;77.50;;;;;;5027093;28;20537;-75
2021/05/30 00:09:39;;;;;;;7.63;6.93;;;16.60;78.10;;;;;;5019493;28;20447;-75
2021/05/30 00:12:09;;;;;;;8.43;7.70;;;16.60;78.40;;;;;;5022716;28;20447;-74
2021/05/30 00:14:36;;;;;;;8.63;7.20;;;16.60;78.80;;;;;;5021582;28;21176;-73
2021/05/30 00:17:02;;;;;;;8.33;7.53;;;16.60;79.60;;;;;;5026825;28;20458;-71
2021/05/30 00:19:27;;;;;;;8.40;7.43;;;16.60;80.10;;;;;;5024076;28;20466;-73
2021/05/30 00:21:53;;;;;;;10.37;8.17;;;16.60;80.50;;;;;;5025846;28;20505;-72
2021/05/30 00:24:19;;;;;;;7.93;7.10;;;16.50;80.70;;;;;;5022589;28;20279;-73
2021/05/30 00:26:44;;;;;;;8.17;7.37;;;16.50;81.50;;;;;;5024953;28;20851;-76
2021/05/30 00:29:10;;;;;;;7.63;6.83;;;16.50;82.00;;;;;;5024742;28;20679;-75
2021/05/30 00:31:36;;;;;;;8.27;6.70;;;16.40;82.30;;;;;;5022151;28;20180;-74
2021/05/30 00:34:02;;;;;;;6.53;5.93;;;16.40;82.80;;;;;;5025846;28;20196;-73
2021/05/30 00:36:28;;;;;;;5.83;5.33;;;16.40;83.00;;;;;;5024670;28;20279;-74
2021/05/30 00:38:54;;;;;;;6.40;5.73;;;16.40;83.30;;;;;;5026418;28;20493;-75
2021/05/30 00:41:19;;;;;;;5.70;5.20;;;16.40;83.50;;;;;;5024729;28;20644;-75
2021/05/30 00:43:49;;;;;;;6.10;5.60;;;16.30;84.10;;;;;;5027724;28;20430;-75
2021/05/30 00:46:15;;;;;;;7.77;5.33;;;16.30;83.90;;;;;;5022056;28;20662;-75
2021/05/30 00:48:41;;;;;;;5.73;5.20;;;16.30;83.80;;;;;;5021870;28;20813;-75
2021/05/30 00:51:07;;;;;;;5.43;4.93;;;16.30;84.10;;;;;;5024327;28;20496;-72
2021/05/30 00:53:34;;;;;;;6.07;5.50;;;16.20;84.10;;;;;;5024970;28;20550;-71
2021/05/30 00:56:03;;;;;;;5.37;4.87;;;16.20;84.20;;;;;;5024124;28;20510;-75
2021/05/30 00:58:29;;;;;;;4.97;4.60;;;16.20;83.60;;;;;;5025176;28;20463;-73
2021/05/30 01:00:54;;;;;;;5.50;5.10;;;16.10;83.50;;;;;;5024950;28;20474;-74
2021/05/30 01:03:20;;;;;;;5.07;4.57;;;16.10;83.00;;;;;;5019270;28;20196;-75
2021/05/30 01:05:47;;;;;;;5.13;4.63;;;16.10;82.30;;;;;;5023587;28;20181;-73
2021/05/30 01:08:15;;;;;;;4.97;4.60;;;16.00;82.20;;;;;;5023570;28;20208;-75
2021/05/30 01:10:46;;;;;;;4.93;4.53;;;16.00;82.40;;;;;;5024274;28;20435;-74
2021/05/30 01:13:13;;;;;;;4.73;4.23;;;16.00;82.80;;;;;;5021521;28;20800;-74
2021/05/30 01:15:40;;;;;;;4.80;4.40;;;15.90;83.00;;;;;;5026132;28;20438;-73
2021/05/30 01:18:06;;;;;;;5.10;4.67;;;15.90;83.60;;;;;;5027293;28;21523;-73
2021/05/30 01:20:32;;;;;;;5.03;4.63;;;15.90;83.80;;;;;;5021106;28;21107;-74
2021/05/30 01:23:05;;;;;;;5.33;4.83;;;15.90;83.90;;;;;;5022125;28;20987;-74
2021/05/30 01:25:31;;;;;;;4.90;4.37;;;15.90;83.60;;;;;;5026391;28;21118;-73
2021/05/30 01:27:56;;;;;;;5.13;4.73;;;15.90;83.60;;;;;;5022191;28;20467;-74
2021/05/30 01:30:23;;;;;;;4.77;4.37;;;15.90;83.50;;;;;;5025711;28;20216;-71
2021/05/30 01:32:50;;;;;;;4.80;4.40;;;15.90;83.80;;;;;;5024710;28;20283;-75
2021/05/30 01:35:16;;;;;;;4.57;4.17;;;15.80;83.80;;;;;;5021936;28;20439;-73
2021/05/30 01:37:42;;;;;;;4.80;4.40;;;15.80;83.80;;;;;;5023810;28;20458;-72
2021/05/30 01:40:09;;;;;;;4.37;3.97;;;15.80;84.30;;;;;;5025509;28;20458;-75
2021/05/30 01:42:35;;;;;;;4.83;4.47;;;15.80;84.50;;;;;;5022456;28;20522;-74
2021/05/30 01:45:01;;;;;;;4.47;4.17;;;15.80;84.50;;;;;;5023393;28;20506;-74
2021/05/30 01:47:27;;;;;;;4.87;4.47;;;15.80;84.30;;;;;;5023355;28;20485;-75
2021/05/30 01:49:52;;;;;;;5.03;4.57;;;15.70;84.30;;;;;;5027303;28;20439;-74
2021/05/30 01:52:18;;;;;;;4.33;4.00;;;15.70;84.40;;;;;;5030153;28;20188;-74
2021/05/30 01:54:48;;;;;;;5.33;4.87;;;15.70;85.60;;;;;;5026703;28;20280;-75
2021/05/30 01:57:15;;;;;;;4.97;4.57;;;15.60;84.70;;;;;;5028632;28;20216;-74
2021/05/30 01:59:43;;;;;;;4.70;4.30;;;15.60;84.90;;;;;;5030169;28;20909;-72
2021/05/30 02:02:10;;;;;;;4.50;4.20;;;15.70;85.20;;;;;;5025564;28;20536;-71
2021/05/30 02:04:40;;;;;;;5.20;4.70;;;15.60;85.20;;;;;;5029161;28;20451;-74
2021/05/30 02:07:07;;;;;;;5.10;4.70;;;15.60;85.50;;;;;;5023489;28;20451;-72
2021/05/30 02:09:35;;;;;;;5.10;4.70;;;15.60;85.90;;;;;;5025976;28;20431;-73
2021/05/30 02:12:02;;;;;;;4.67;4.30;;;15.60;86.10;;;;;;5027479;28;20517;-73
2021/05/30 02:14:28;;;;;;;5.07;4.57;;;15.50;86.00;;;;;;5028779;28;20458;-73
2021/05/30 02:16:54;;;;;;;4.83;4.43;;;15.50;86.40;;;;;;5026246;28;21203;-72
2021/05/30 02:19:19;;;;;;;6.00;4.87;;;15.40;86.60;;;;;;5028768;28;20247;-75
2021/05/30 02:21:47;;;;;;;4.60;4.20;;;15.40;86.70;;;;;;5026922;28;20681;-74
2021/05/30 02:24:15;;;;;;;4.27;3.97;;;15.40;87.00;;;;;;5028409;28;20187;-73
2021/05/30 02:26:41;;;;;;;4.87;4.47;;;15.40;87.70;;;;;;5027516;28;20480;-74
2021/05/30 02:29:07;;;;;;;4.13;3.83;;;15.40;88.20;;;;;;5026235;28;20466;-74
2021/05/30 02:31:33;;;;;;;4.50;4.20;;;15.40;88.60;;;;;;5026974;28;20435;-74
2021/05/30 02:33:59;;;;;;;5.03;4.53;;;15.40;88.80;;;;;;5027944;28;20458;-73
2021/05/30 02:36:26;;;;;;;4.87;4.47;;;15.30;88.90;;;;;;5026624;28;20437;-74
2021/05/30 02:38:52;;;;;;;4.73;4.37;;;15.30;89.30;;;;;;5025482;28;20271;-74
2021/05/30 02:41:18;;;;;;;4.83;4.53;;;15.20;89.50;;;;;;5027143;28;21112;-72
2021/05/30 02:43:43;;;;;;;5.13;4.73;;;15.20;89.80;;;;;;5026452;28;20196;-74
2021/05/30 02:46:09;;;;;;;5.17;4.67;;;15.20;90.00;;;;;;5027609;28;20184;-74
2021/05/30 02:48:36;;;;;;;5.40;4.87;;;15.20;90.10;;;;;;5026279;28;20287;-72
2021/05/30 02:51:03;;;;;;;4.43;4.13;;;15.20;90.30;;;;;;5025960;28;20802;-74
2021/05/30 02:53:30;;;;;;;5.00;4.60;;;15.20;90.40;;;;;;5026092;28;20530;-74
2021/05/30 02:55:57;;;;;;;5.20;4.70;;;15.10;90.50;;;;;;5030268;28;20469;-73
2021/05/30 02:58:24;;;;;;;5.27;4.77;;;15.10;90.90;;;;;;5024936;28;20446;-75
2021/05/30 03:00:50;;;;;;;5.10;4.60;;;15.00;90.90;;;;;;5027860;28;20494;-74
2021/05/30 03:03:16;;;;;;;5.00;4.60;;;15.00;91.00;;;;;;5025646;28;20434;-75
2021/05/30 03:05:41;;;;;;;5.20;4.70;;;15.00;91.20;;;;;;5025337;28;20872;-73
2021/05/30 03:08:07;;;;;;;4.90;4.50;;;15.00;91.40;;;;;;5027630;28;20208;-74
2021/05/30 03:10:33;;;;;;;5.00;4.50;;;15.00;91.50;;;;;;5027194;28;20622;-74
2021/05/30 03:12:59;;;;;;;5.00;4.60;;;15.00;91.50;;;;;;5024116;28;20608;-73
2021/05/30 03:15:25;;;;;;;5.70;4.93;;;14.90;91.70;;;;;;5026723;28;20222;-75
2021/05/30 03:17:51;;;;;;;5.10;4.70;;;15.00;91.80;;;;;;5027193;28;20537;-75
2021/05/30 03:20:17;;;;;;;4.83;4.43;;;15.00;91.90;;;;;;5027920;28;20504;-75
2021/05/30 03:22:43;;;;;;;5.20;4.40;;;14.90;91.80;;;;;;5027358;28;20926;-74
2021/05/30 03:25:09;;;;;;;5.90;4.70;;;14.90;91.90;;;;;;5025658;28;20300;-74
2021/05/30 03:27:35;;;;;;;5.20;4.80;;;14.90;92.10;;;;;;5027752;28;20220;-74
2021/05/30 03:30:00;;;;;;;5.53;5.03;;;14.90;92.20;;;;;;5025901;28;20438;-73
2021/05/30 03:32:26;;;;;;;5.73;5.17;;;14.80;92.50;;;;;;5020450;28;20835;-74
2021/05/30 03:34:51;;;;;;;5.20;4.50;;;14.80;92.60;;;;;;5026722;28;20197;-74
2021/05/30 03:37:17;;;;;;;6.87;5.83;;;14.80;92.60;;;;;;5025128;28;20832;-75
2021/05/30 03:39:44;;;;;;;5.00;4.60;;;14.80;92.70;;;;;;5008038;28;20212;-73
2021/05/30 03:42:14;;;;;;;5.03;4.63;;;14.80;92.80;;;;;;5027180;28;20192;-75
2021/05/30 03:44:39;;;;;;;4.90;4.37;;;14.80;92.90;;;;;;5027370;28;20459;-74
2021/05/30 03:47:05;;;;;;;5.60;5.10;;;14.80;93.20;;;;;;5024636;28;20537;-71
2021/05/30 03:49:31;;;;;;;5.77;5.30;;;14.80;93.40;;;;;;5025707;28;20255;-72
2021/05/30 03:51:56;;;;;;;5.20;4.80;;;14.80;93.40;;;;;;5026132;28;20208;-73
2021/05/30 03:54:22;;;;;;;4.93;4.53;;;14.80;93.50;;;;;;5026142;28;20184;-75
2021/05/30 03:56:48;;;;;;;4.77;4.37;;;14.70;93.40;;;;;;5027990;28;20596;-75
2021/05/30 03:59:14;;;;;;;6.00;4.97;;;14.70;93.70;;;;;;5026366;28;20193;-75
2021/05/30 04:01:39;;;;;;;5.07;4.40;;;14.70;93.90;;;;;;5027239;28;20500;-72
2021/05/30 04:04:05;;;;;;;5.60;4.67;;;14.80;93.90;;;;;;5028528;28;20614;-72
2021/05/30 04:06:31;;;;;;;4.87;4.47;;;14.70;94.00;;;;;;5025058;28;20725;-75
2021/05/30 04:08:56;;;;;;;4.87;4.53;;;14.70;94.10;;;;;;5023380;28;20267;-74
2021/05/30 04:11:22;;;;;;;5.20;4.70;;;14.70;94.10;;;;;;5025124;28;20188;-75
2021/05/30 04:13:48;;;;;;;5.57;5.07;;;14.70;94.50;;;;;;5025299;28;20921;-73
2021/05/30 04:16:13;;;;;;;5.13;4.63;;;14.70;94.60;;;;;;5026852;28;20188;-75
2021/05/30 04:18:39;;;;;;;4.53;4.13;;;14.70;94.80;;;;;;5028359;28;20212;-75
2021/05/30 04:21:05;;;;;;;5.27;4.77;;;14.70;95.00;;;;;;5024745;28;20650;-75
2021/05/30 04:23:31;;;;;;;4.97;4.57;;;14.70;95.10;;;;;;5024523;28;20184;-75
2021/05/30 04:25:58;;;;;;;5.70;5.07;;;14.70;95.30;;;;;;5023605;28;20795;-74
2021/05/30 04:28:24;;;;;;;5.50;5.00;;;14.70;95.40;;;;;;5023635;28;20510;-75
2021/05/30 04:30:50;;;;;;;5.20;4.70;;;14.70;95.50;;;;;;5024596;28;20451;-76
2021/05/30 04:33:15;;;;;;;5.80;5.30;;;14.80;95.70;;;;;;5023032;28;20439;-74
2021/05/30 04:35:41;;;;;;;5.40;4.90;;;14.80;95.60;;;;;;5024223;28;20442;-73
2021/05/30 04:38:06;;;;;;;6.43;5.83;;;14.80;95.70;;;;;;5025411;28;20213;-75
2021/05/30 04:40:32;;;;;;;6.50;5.73;;;14.80;96.10;;;;;;5024127;28;20208;-76
2021/05/30 04:42:58;;;;;;;5.70;5.20;;;14.80;95.70;;;;;;5025612;28;20823;-72
2021/05/30 04:45:24;;;;;;;7.70;5.03;;;14.80;95.90;;;;;;5023670;28;20215;-74
2021/05/30 04:47:49;;;;;;;5.57;5.10;;;14.80;96.10;;;;;;5025432;28;20227;-75
2021/05/30 04:50:15;;;;;;;5.83;5.23;;;14.90;96.10;;;;;;5020077;28;20204;-74
2021/05/30 04:52:42;;;;;;;5.80;5.20;;;14.90;96.30;;;;;;5025841;28;20192;-75
2021/05/30 04:55:10;;;;;;;5.50;5.10;;;14.90;96.10;;;;;;5024998;28;20465;-73
2021/05/30 04:57:36;;;;;;;6.07;5.07;;;14.90;96.10;;;;;;5029162;28;20463;-72
2021/05/30 05:00:02;;;;;;;5.40;5.00;;;14.90;96.20;;;;;;5025651;28;20814;-70
2021/05/30 05:02:28;;;;;;;5.10;4.60;;;15.00;96.10;;;;;;5023581;28;20950;-74
2021/05/30 05:04:54;;;;;;;5.07;4.67;;;15.00;96.30;;;;;;5024925;28;20475;-73
2021/05/30 05:07:19;;;;;;;5.20;4.80;;;15.00;96.20;;;;;;5025059;28;20672;-74
2021/05/30 05:09:45;;;;;;;5.77;5.27;;;15.00;96.10;;;;;;5023503;28;20293;-75
2021/05/30 05:12:11;;;;;;;6.40;5.50;;;15.10;96.50;;;;;;5025783;28;20920;-74
2021/05/30 05:14:36;;;;;;;6.43;5.10;;;15.10;96.20;;;;;;5024336;28;20196;-73
2021/05/30 05:17:02;;;;;;;6.33;5.33;;;15.10;96.30;;;;;;5027947;28;20455;-74
2021/05/30 05:19:28;;;;;;;5.50;4.93;;;15.10;96.50;;;;;;5026256;28;20231;-75
2021/05/30 05:21:53;;;;;;;5.50;5.00;;;15.20;96.60;;;;;;5024757;28;20181;-75
2021/05/30 05:24:19;;;;;;;5.67;5.17;;;15.20;96.50;;;;;;5024379;28;20246;-74
2021/05/30 05:26:44;;;;;;;6.80;4.90;;;15.20;96.50;;;;;;5026564;28;20597;-73
2021/05/30 05:29:10;;;;;;;6.70;5.63;;;15.20;96.70;;;;;;5025020;28;20228;-75
2021/05/30 05:31:36;;;;;;;5.40;4.90;;;15.20;96.80;;;;;;5024619;28;20597;-75
2021/05/30 05:34:01;;;;;;;6.13;5.63;;;15.30;97.00;;;;;;5027961;28;20180;-73
2021/05/30 05:36:27;;;;;;;6.03;5.47;;;15.30;96.80;;;;;;5022716;28;21938;-71
2021/05/30 05:38:52;;;;;;;5.40;4.90;;;15.40;97.00;;;;;;5025336;28;20215;-74
2021/05/30 05:41:18;;;;;;;5.40;4.90;;;15.40;97.10;;;;;;5025857;28;20306;-74
2021/05/30 05:43:44;;;;;;;6.00;5.40;;;15.50;97.10;;;;;;5020714;28;20189;-76
2021/05/30 05:46:09;;;;;;;5.40;5.00;;;15.60;96.70;;;;;;5025209;28;20213;-74
2021/05/30 05:48:35;;;;;;;5.20;4.80;;;15.60;96.70;;;;;;5025283;28;20846;-75
2021/05/30 05:51:01;;;;;;;5.50;4.90;;;15.70;96.70;;;;;;5023980;28;20690;-74
2021/05/30 05:53:27;;;;;;;5.43;4.93;;;15.80;96.50;;;;;;5024870;28;20903;-74
2021/05/30 05:55:52;;;;;;;6.97;5.63;;;15.90;96.50;;;;;;5023194;28;20639;-74
2021/05/30 05:58:18;;;;;;;6.27;5.40;;;15.90;96.60;;;;;;5023748;28;20254;-74
2021/05/30 06:00:45;;;;;;;5.73;5.23;;;15.90;96.70;;;;;;5025454;28;20207;-76
2021/05/30 06:03:10;;;;;;;5.90;5.10;;;15.90;96.50;;;;;;5023509;28;20438;-73
2021/05/30 06:05:36;;;;;;;6.40;5.80;;;16.00;96.60;;;;;;5028379;28;21007;-73
2021/05/30 06:08:02;;;;;;;6.60;5.47;;;15.90;97.10;;;;;;5026140;28;20219;-73
2021/05/30 06:10:28;;;;;;;5.30;4.80;;;15.90;96.90;;;;;;5023675;28;20275;-74
2021/05/30 06:12:55;;;;;;;6.97;5.57;;;15.90;97.10;;;;;;5020262;28;20197;-74
2021/05/30 06:15:22;;;;;;;6.10;5.50;;;15.80;97.40;;;;;;5025025;28;21498;-73
2021/05/30 06:18:08;;;;;;;6.80;5.87;;;15.80;97.20;;;;;;5024462;28;20569;-73
2021/05/30 06:20:34;;;;;;;5.57;5.07;;;15.90;97.20;;;;;;5020109;28;20466;-74
2021/05/30 06:23:00;;;;;;;7.13;5.27;;;16.10;97.10;;;;;;5023316;28;20458;-73
2021/05/30 06:25:28;;;;;;;4.97;4.57;;;16.30;97.10;;;;;;5023384;28;20437;-73
2021/05/30 06:27:56;;;;;;;5.77;5.10;;;16.40;97.10;;;;;;5024811;28;20220;-73
2021/05/30 06:30:23;;;;;;;6.60;5.33;;;16.40;96.90;;;;;;5024926;28;20861;-73
2021/05/30 06:32:49;;;;;;;5.87;5.27;;;16.50;96.90;;;;;;5024176;28;20518;-74
2021/05/30 06:35:14;;;;;;;6.07;5.47;;;16.50;96.80;;;;;;5026546;28;21335;-73
2021/05/30 06:37:40;;;;;;;5.70;5.10;;;16.60;96.80;;;;;;5028387;28;20312;-74
2021/05/30 06:40:06;;;;;;;6.53;5.70;;;16.60;96.60;;;;;;5025722;28;20244;-73
2021/05/30 06:42:32;;;;;;;5.90;5.33;;;16.70;96.50;;;;;;5028533;28;20254;-74
2021/05/30 06:44:57;;;;;;;7.50;5.70;;;16.80;96.20;;;;;;5026806;28;20458;-75
2021/05/30 06:47:23;;;;;;;5.57;5.10;;;16.90;96.50;;;;;;5027041;28;20759;-74
2021/05/30 06:49:49;;;;;;;5.70;5.20;;;17.00;96.20;;;;;;5026158;28;20189;-74
2021/05/30 06:52:14;;;;;;;6.23;5.67;;;17.10;96.20;;;;;;5026161;28;20222;-74
2021/05/30 06:54:40;;;;;;;5.63;5.13;;;17.10;96.10;;;;;;5028699;28;20189;-74
2021/05/30 06:57:06;;;;;;;5.50;5.00;;;17.20;96.20;;;;;;5026896;28;20307;-75
2021/05/30 06:59:31;;;;;;;11.20;5.33;;;17.40;96.20;;;;;;5023256;28;20628;-75
2021/05/30 07:01:57;;;;;;;5.97;5.40;;;17.30;95.80;;;;;;5028017;28;20835;-75
2021/05/30 07:04:26;;;;;;;6.40;5.90;;;17.40;95.70;;;;;;5025773;28;20565;-75
2021/05/30 07:06:51;;;;;;;5.37;4.87;;;17.60;95.70;;;;;;5026441;28;20269;-76
2021/05/30 07:09:17;;;;;;;6.73;6.07;;;17.70;95.20;;;;;;5027799;28;20439;-75
2021/05/30 07:11:43;;;;;;;5.60;5.10;;;17.80;94.80;;;;;;5027471;28;20267;-75
2021/05/30 07:14:08;;;;;;;5.70;5.07;;;17.90;95.00;;;;;;5025762;28;20659;-74
2021/05/30 07:16:34;;;;;;;5.80;4.97;;;17.80;94.50;;;;;;5026579;28;20169;-74
2021/05/30 07:18:59;;;;;;;5.83;5.23;;;17.90;94.00;;;;;;5027164;28;20529;-74
2021/05/30 07:21:25;;;;;;;8.17;5.70;;;18.00;93.90;;;;;;5024493;28;20725;-74
2021/05/30 07:23:51;;;;;;;5.70;5.20;;;18.10;94.00;;;;;;5028163;28;21610;-75
2021/05/30 07:26:16;;;;;;;9.27;4.97;;;18.10;94.00;;;;;;5022619;28;20292;-75
2021/05/30 07:28:44;;;;;;;5.47;4.97;;;18.20;94.10;;;;;;5028943;28;20281;-73
2021/05/30 07:31:10;;;;;;;4.80;4.47;;;18.10;93.40;;;;;;5026929;28;20192;-74
2021/05/30 07:33:36;;;;;;;5.00;4.60;;;18.10;92.90;;;;;;5023927;28;21000;-74
2021/05/30 07:36:02;;;;;;;5.07;4.60;;;18.20;92.90;;;;;;5027624;28;20193;-74
2021/05/30 07:38:28;;;;;;;5.77;5.27;;;18.30;92.90;;;;;;5029074;28;20479;-73
2021/05/30 07:40:53;;;;;;;7.80;5.43;;;18.50;92.50;;;;;;5025531;28;20505;-74
2021/05/30 07:43:19;;;;;;;6.10;4.70;;;18.60;92.40;;;;;;5025115;28;20199;-73
2021/05/30 07:45:44;;;;;;;5.53;5.00;;;18.60;92.20;;;;;;5026776;28;20731;-73
2021/05/30 07:48:10;;;;;;;5.47;4.97;;;18.70;92.10;;;;;;5025095;28;20212;-73
2021/05/30 07:50:36;;;;;;;6.60;5.20;;;18.90;91.90;;;;;;5025285;28;20184;-75
2021/05/30 07:53:03;;;;;;;5.33;4.93;;;19.00;91.70;;;;;;5026950;28;20807;-75
2021/05/30 07:55:29;;;;;;;7.67;5.37;;;19.00;91.60;;;;;;5024109;28;20185;-75
2021/05/30 07:57:55;;;;;;;5.33;4.83;;;19.00;91.60;;;;;;5023138;28;20458;-75
2021/05/30 08:00:21;;;;;;;6.00;5.40;;;19.10;91.90;;;;;;5024929;28;20466;-75
2021/05/30 08:02:47;;;;;;;5.50;5.00;;;19.30;91.90;;;;;;5024275;28;20180;-74
2021/05/30 08:05:18;;;;;;;6.47;4.90;;;19.40;91.60;;;;;;5026598;28;20434;-74
2021/05/30 08:07:44;;;;;;;7.03;5.30;;;19.40;91.50;;;;;;5025078;28;20524;-74
2021/05/30 08:10:10;;;;;;;5.00;4.60;;;19.50;91.10;;;;;;5027037;28;20602;-75
2021/05/30 08:12:36;;;;;;;6.07;5.37;;;19.50;90.80;;;;;;5026979;28;20433;-74
2021/05/30 08:15:02;;;;;;;5.47;4.97;;;19.60;90.40;;;;;;5021794;28;20822;-75
2021/05/30 08:17:28;;;;;;;4.80;4.33;;;19.70;90.50;;;;;;5023816;28;20216;-75
2021/05/30 08:19:54;;;;;;;4.93;4.47;;;19.70;91.00;;;;;;5028052;28;20481;-75
2021/05/30 08:22:20;;;;;;;5.10;4.70;;;19.80;90.70;;;;;;5023657;28;20432;-74
2021/05/30 08:24:47;;;;;;;6.13;5.03;;;19.90;90.10;;;;;;5024711;28;20188;-75
2021/05/30 08:27:13;;;;;;;5.63;5.13;;;19.80;87.80;;;;;;5022473;28;20255;-75
2021/05/30 08:29:39;;;;;;;6.00;5.50;;;19.80;86.80;;;;;;5021166;28;21241;-73
2021/05/30 08:32:05;;;;;;;5.63;5.23;;;19.90;88.60;;;;;;5025265;28;20442;-74
2021/05/30 08:34:32;;;;;;;6.50;5.70;;;19.90;88.10;;;;;;5021879;28;20193;-74
2021/05/30 08:36:57;;;;;;;5.70;5.10;;;19.90;87.70;;;;;;5024664;28;20471;-74
2021/05/30 08:39:23;;;;;;;5.60;5.10;;;20.00;88.40;;;;;;5024720;28;20457;-74
2021/05/30 08:41:49;;;;;;;5.73;5.00;;;20.10;88.40;;;;;;5023663;28;20327;-74
2021/05/30 08:44:14;;;;;;;8.60;5.10;;;20.10;87.90;;;;;;5021835;28;20201;-73
2021/05/30 08:46:42;;;;;;;5.63;5.13;;;20.10;87.00;;;;;;5020739;28;20198;-74
2021/05/30 08:49:08;;;;;;;7.07;5.57;;;20.20;87.20;;;;;;5023401;28;20215;-74
2021/05/30 08:51:38;;;;;;;7.10;5.57;;;20.30;87.20;;;;;;5022364;28;20435;-74
2021/05/30 08:54:13;;;;;;;5.63;5.23;;;20.40;86.20;;;;;;5020158;28;20456;-74
2021/05/30 08:56:40;;;;;;;5.57;5.13;;;20.50;85.40;;;;;;5023847;28;21081;-73
2021/05/30 08:59:14;;;;;;;6.43;5.80;;;20.50;85.70;;;;;;5021925;28;20968;-73
2021/05/30 09:01:44;;;;;;;5.77;5.27;;;20.60;85.90;;;;;;5024052;28;20693;-73
2021/05/30 09:04:11;;;;;;;5.43;4.73;;;20.70;85.60;;;;;;5024936;28;20435;-74
2021/05/30 09:06:40;;;;;;;5.10;4.70;;;20.60;84.70;;;;;;5023473;28;21000;-75
2021/05/30 09:09:08;;;;;;;5.30;4.90;;;20.60;83.90;;;;;;5017989;28;20475;-72
2021/05/30 09:11:42;;;;;;;7.57;6.87;;;20.60;83.40;;;;;;5023790;28;20435;-73
2021/05/30 09:14:18;;;;;;;5.80;4.80;;;20.80;83.50;;;;;;5022750;28;20471;-73
2021/05/30 09:16:48;;;;;;;5.53;5.10;;;20.80;83.00;;;;;;5022637;28;20451;-74
2021/05/30 09:19:47;;;;;;;6.17;5.57;;;20.80;81.60;;;;;;5021087;28;20443;-73
2021/05/30 09:22:21;;;;;;;5.70;5.20;;;20.90;81.30;;;;;;5024444;28;20446;-73
2021/05/30 09:24:50;;;;;;;8.20;5.73;;;20.90;80.90;;;;;;5026175;28;20526;-73
2021/05/30 09:27:21;;;;;;;5.27;4.50;;;21.10;81.60;;;;;;5022405;28;20466;-74
2021/05/30 09:30:06;;;;;;;5.73;5.23;;;21.30;80.10;;;;;;5024226;28;20439;-74
2021/05/30 09:32:55;;;;;;;6.50;4.70;;;21.20;77.30;;;;;;5025781;28;20432;-74
2021/05/30 09:35:25;;;;;;;5.33;4.83;;;21.20;77.40;;;;;;5025145;28;21072;-74
2021/05/30 09:38:06;;;;;;;5.77;5.27;;;21.40;77.60;;;;;;5023260;28;20893;-74
2021/05/30 09:40:38;;;;;;;4.80;4.43;;;21.30;73.50;;;;;;5022959;28;20593;-74
2021/05/30 09:43:05;;;;;;;6.07;5.10;;;21.20;72.40;;;;;;5023092;28;20945;-74
2021/05/30 09:45:31;;;;;;;5.53;5.13;;;21.10;73.50;;;;;;5023629;28;20465;-75
2021/05/30 09:47:57;;;;;;;5.17;4.47;;;21.10;73.30;;;;;;5025832;28;21009;-74
2021/05/30 09:50:22;;;;;;;4.73;4.37;;;21.10;73.20;;;;;;5023823;28;20560;-74
2021/05/30 09:52:52;;;;;;;4.20;3.90;;;21.40;73.00;;;;;;5022045;28;20219;-74
2021/05/30 09:55:19;;;;;;;4.53;4.23;;;21.70;72.50;;;;;;5024326;28;20246;-74
2021/05/30 09:58:14;;;;;;;4.80;4.40;;;21.80;69.40;;;;;;5025920;28;20446;-74
2021/05/30 10:00:42;;;;;;;4.77;4.37;;;21.80;64.10;;;;;;5021919;28;20661;-74
2021/05/30 10:03:08;;;;;;;4.50;4.10;;;21.90;62.40;;;;;;5022181;28;20531;-75
2021/05/30 10:05:35;;;;;;;4.70;4.00;;;21.90;60.60;;;;;;5021769;28;20546;-74
2021/05/30 10:08:01;;;;;;;4.70;4.33;;;22.00;60.80;;;;;;5020929;28;20451;-75
2021/05/30 10:10:28;;;;;;;4.60;4.23;;;22.00;61.80;;;;;;5027980;28;20551;-75
2021/05/30 10:12:54;;;;;;;9.03;4.50;;;21.90;61.40;;;;;;5027947;28;20427;-76
2021/05/30 10:15:21;;;;;;;5.47;5.00;;;21.90;61.30;;;;;;5028291;28;20450;-76
2021/05/30 10:17:50;;;;;;;4.73;4.33;;;22.10;61.90;;;;;;5028892;28;20467;-75
2021/05/30 10:20:19;;;;;;;4.30;4.00;;;22.30;61.00;;;;;;5024738;28;20569;-73
2021/05/30 10:22:51;;;;;;;4.47;4.10;;;22.30;62.00;;;;;;5025087;28;20473;-75
2021/05/30 10:25:30;;;;;;;10.10;4.20;;;22.40;61.80;;;;;;5024828;28;20482;-76
2021/05/30 10:28:13;;;;;;;5.13;4.40;;;22.40;59.20;;;;;;5028142;28;20466;-73
2021/05/30 10:30:50;;;;;;;5.87;4.77;;;22.30;58.10;;;;;;5024604;28;20510;-73
2021/05/30 10:33:18;;;;;;;4.17;3.87;;;22.20;58.40;;;;;;5027232;28;20439;-74
2021/05/30 10:35:48;;;;;;;4.30;3.90;;;22.00;55.90;;;;;;5028150;28;20851;-75
2021/05/30 10:38:36;;;;;;;4.40;4.00;;;21.90;55.20;;;;;;5022684;28;20813;-75
2021/05/30 10:41:19;;;;;;;4.60;4.00;;;22.10;55.50;;;;;;5025688;28;21092;-76
2021/05/30 10:43:45;;;;;;;3.90;3.60;;;22.30;55.40;;;;;;5029113;28;20439;-76
2021/05/30 10:46:11;;;;;;;4.13;3.83;;;22.50;56.30;;;;;;5028309;28;20431;-76
2021/05/30 10:48:39;;;;;;;4.20;3.87;;;22.40;55.80;;;;;;5026546;28;20457;-76
2021/05/30 10:51:24;;;;;;;4.70;4.30;;;22.60;55.10;;;;;;5027618;28;20195;-75
2021/05/30 10:53:51;;;;;;;13.73;4.90;;;22.60;54.30;;;;;;5027450;28;20448;-76
2021/05/30 10:56:31;;;;;;;6.87;4.33;;;22.60;54.50;;;;;;5014766;28;20442;-72
2021/05/30 10:59:15;;;;;;;4.30;4.00;;;22.50;54.70;;;;;;5018177;28;20454;-75
2021/05/30 11:01:48;;;;;;;5.93;4.10;;;22.70;55.70;;;;;;5021717;28;21011;-74
2021/05/30 11:04:29;;;;;;;5.30;4.67;;;22.60;53.00;;;;;;5022951;28;20442;-76
2021/05/30 11:06:58;;;;;;;5.53;4.60;;;22.70;53.80;;;;;;5026177;28;20434;-75
2021/05/30 11:09:44;;;;;;;4.47;4.03;;;22.60;51.50;;;;;;5021827;28;20439;-74
2021/05/30 11:12:22;;;;;;;4.70;3.87;;;22.60;50.30;;;;;;5022837;28;20458;-73
2021/05/30 11:15:10;;;;;;;4.63;4.03;;;22.50;52.20;;;;;;5024141;28;20431;-75
2021/05/30 11:17:38;;;;;;;4.07;3.77;;;22.70;51.60;;;;;;5023004;28;20455;-76
2021/05/30 11:20:09;;;;;;;4.57;4.20;;;22.80;51.70;;;;;;5025185;28;20582;-75
2021/05/30 11:22:47;;;;;;;5.17;4.37;;;22.90;49.50;;;;;;5021941;28;20450;-75
2021/05/30 11:25:24;;;;;;;4.50;4.00;;;23.00;50.90;;;;;;5026710;28;20441;-75
2021/05/30 11:27:57;;;;;;;5.20;3.80;;;23.00;49.60;;;;;;5018907;28;20501;-75
2021/05/30 11:30:50;;;;;;;4.43;4.13;;;23.00;50.30;;;;;;5023650;28;20428;-74
2021/05/30 11:33:21;;;;;;;5.17;4.67;;;23.00;51.00;;;;;;5024714;28;21232;-75
2021/05/30 11:35:52;;;;;;;4.77;4.47;;;23.10;50.40;;;;;;5023262;28;20458;-76
2021/05/30 11:38:18;;;;;;;4.20;3.90;;;23.10;50.40;;;;;;5022008;28;20830;-76
2021/05/30 11:40:44;;;;;;;4.73;4.43;;;23.20;48.90;;;;;;5025141;28;20459;-76
2021/05/30 11:43:18;;;;;;;4.70;4.30;;;23.20;48.00;;;;;;5024577;28;20437;-75
2021/05/30 11:45:47;;;;;;;7.30;4.23;;;23.10;48.30;;;;;;5025915;28;20242;-75
2021/05/30 11:48:16;;;;;;;4.80;4.27;;;23.00;48.50;;;;;;5023814;28;20454;-74
2021/05/30 11:50:53;;;;;;;4.30;4.00;;;23.00;49.40;;;;;;5025500;28;20529;-75
2021/05/30 11:53:28;;;;;;;4.07;3.77;;;23.10;49.40;;;;;;5024940;28;20449;-75
2021/05/30 11:55:54;;;;;;;4.83;4.43;;;23.10;48.70;;;;;;5023365;28;20442;-75
2021/05/30 11:58:20;;;;;;;4.73;4.20;;;23.00;48.50;;;;;;5024556;28;20463;-74
2021/05/30 12:00:45;;;;;;;4.70;4.40;;;22.90;49.50;;;;;;5027120;28;21006;-74
2021/05/30 12:03:12;;;;;;;4.87;4.50;;;22.90;50.10;;;;;;5022290;28;20195;-72
2021/05/30 12:05:39;;;;;;;4.77;4.30;;;23.10;50.60;;;;;;5027176;28;20766;-73
2021/05/30 12:08:17;;;;;;;7.93;4.50;;;23.10;50.00;;;;;;5024750;28;21090;-73
2021/05/30 12:10:53;;;;;;;10.80;5.20;;;23.00;50.70;;;;;;5019995;28;20526;-74
2021/05/30 12:13:44;;;;;;;5.30;4.90;;;23.00;50.80;;;;;;5023628;28;21031;-75
2021/05/30 12:16:16;;;;;;;4.90;4.40;;;23.00;50.80;;;;;;5026506;28;20446;-74
2021/05/30 12:18:59;;;;;;;4.83;4.53;;;23.10;51.20;;;;;;5024207;28;20455;-73
2021/05/30 12:21:46;;;;;;;4.80;4.40;;;23.10;50.00;;;;;;5020962;28;20847;-76
2021/05/30 12:24:15;;;;;;;4.67;4.27;;;23.00;50.70;;;;;;5023409;28;20854;-75
2021/05/30 12:26:46;;;;;;;10.03;4.40;;;23.10;49.40;;;;;;5022981;28;20443;-75
2021/05/30 12:29:12;;;;;;;4.47;4.17;;;23.00;49.70;;;;;;5018744;28;20544;-74
2021/05/30 12:31:38;;;;;;;5.40;4.73;;;23.10;50.60;;;;;;5020977;28;20435;-75
2021/05/30 12:34:05;;;;;;;4.93;4.50;;;23.30;51.50;;;;;;5020204;28;20443;-73
2021/05/30 12:36:35;;;;;;;4.47;4.10;;;23.40;51.50;;;;;;5020659;28;20457;-72
2021/05/30 12:39:20;;;;;;;4.83;4.20;;;23.40;49.90;;;;;;5024754;28;20983;-75
2021/05/30 12:41:49;;;;;;;4.10;3.80;;;23.40;48.40;;;;;;5022791;28;20423;-76
2021/05/30 12:44:29;;;;;;;6.90;4.40;;;23.30;48.80;;;;;;5029609;28;20431;-74
2021/05/30 12:47:01;;;;;;;4.93;4.63;;;23.10;48.50;;;;;;5025543;28;20454;-75
2021/05/30 12:49:27;;;;;;;5.53;4.30;;;23.20;49.10;;;;;;5024780;28;20492;-74
2021/05/30 12:52:07;;;;;;;4.17;3.77;;;23.40;48.80;;;;;;5029665;28;20446;-75